<?xml version="1.0" encoding="UTF-8" standalone="no" ?>
<gpx xmlns="http://www.topografix.com/GPX/1/1" xmlns:xsi="http://www.w3.org/2001/XMLSchema-instance" xsi:schemaLocation="http://www.topografix.com/GPX/1/1 http://www.topografix.com/GPX/1/1/gpx.xsd" version="1.1" creator="VisuGPX - https://www.visugpx.com">
  <metadata>
    <name>Argentina</name>
    <desc><![CDATA[Downloaded from eMap Software Version 2.75]]></desc>
  </metadata>
  <trk>
    <name><![CDATA[Argentina_22]]></name>
    <extensions>
      <line xmlns="http://www.topografix.com/GPX/gpx_style/0/2">
        <color>ff0000</color>
        <opacity>0.78</opacity>
        <width>0.6000</width>
      </line>
    </extensions>
    <trkseg>
      <trkpt lat="-27.8035" lon="-64.28689">
        <ele>210.666016</ele>
        <time>2005-12-12T17:25:34Z</time>
      </trkpt>
      <trkpt lat="-27.80393" lon="-64.28644">
        <ele>179.903809</ele>
        <time>2005-12-12T17:25:37Z</time>
      </trkpt>
      <trkpt lat="-27.80395" lon="-64.28613">
        <ele>179.423218</ele>
        <time>2005-12-12T17:25:39Z</time>
      </trkpt>
      <trkpt lat="-27.80163" lon="-64.28304">
        <ele>185.191162</ele>
        <time>2005-12-12T17:26:06Z</time>
      </trkpt>
      <trkpt lat="-27.8006" lon="-64.28159">
        <ele>185.191162</ele>
        <time>2005-12-12T17:26:24Z</time>
      </trkpt>
      <trkpt lat="-27.80073" lon="-64.28148">
        <ele>185.191162</ele>
        <time>2005-12-12T17:26:34Z</time>
      </trkpt>
      <trkpt lat="-27.8008" lon="-64.28154">
        <ele>185.191162</ele>
        <time>2005-12-12T17:26:41Z</time>
      </trkpt>
      <trkpt lat="-27.8008" lon="-64.28148">
        <ele>185.671753</ele>
        <time>2005-12-12T17:26:48Z</time>
      </trkpt>
      <trkpt lat="-27.80146" lon="-64.28109">
        <ele>185.671753</ele>
        <time>2005-12-12T17:26:59Z</time>
      </trkpt>
      <trkpt lat="-27.80193" lon="-64.28077">
        <ele>185.671753</ele>
        <time>2005-12-12T17:27:04Z</time>
      </trkpt>
      <trkpt lat="-27.80309" lon="-64.27991">
        <ele>185.671753</ele>
        <time>2005-12-12T17:27:16Z</time>
      </trkpt>
      <trkpt lat="-27.80348" lon="-64.27968">
        <ele>186.152466</ele>
        <time>2005-12-12T17:27:28Z</time>
      </trkpt>
      <trkpt lat="-27.80346" lon="-64.27938">
        <ele>187.11377</ele>
        <time>2005-12-12T17:27:36Z</time>
      </trkpt>
      <trkpt lat="-27.80292" lon="-64.27841">
        <ele>188.555786</ele>
        <time>2005-12-12T17:27:47Z</time>
      </trkpt>
      <trkpt lat="-27.80193" lon="-64.27656">
        <ele>186.633179</ele>
        <time>2005-12-12T17:28:01Z</time>
      </trkpt>
      <trkpt lat="-27.80052" lon="-64.2741">
        <ele>187.11377</ele>
        <time>2005-12-12T17:28:21Z</time>
      </trkpt>
      <trkpt lat="-27.8003" lon="-64.27378">
        <ele>187.59436</ele>
        <time>2005-12-12T17:28:32Z</time>
      </trkpt>
      <trkpt lat="-27.80026" lon="-64.27369">
        <ele>187.11377</ele>
        <time>2005-12-12T17:28:45Z</time>
      </trkpt>
      <trkpt lat="-27.79992" lon="-64.27305">
        <ele>187.11377</ele>
        <time>2005-12-12T17:28:57Z</time>
      </trkpt>
      <trkpt lat="-27.79893" lon="-64.2712">
        <ele>187.11377</ele>
        <time>2005-12-12T17:29:13Z</time>
      </trkpt>
      <trkpt lat="-27.7973" lon="-64.26828">
        <ele>189.997681</ele>
        <time>2005-12-12T17:29:35Z</time>
      </trkpt>
      <trkpt lat="-27.79548" lon="-64.26517">
        <ele>189.997681</ele>
        <time>2005-12-12T17:30:01Z</time>
      </trkpt>
      <trkpt lat="-27.79545" lon="-64.26504">
        <ele>189.997681</ele>
        <time>2005-12-12T17:30:22Z</time>
      </trkpt>
    </trkseg>
  </trk>
</gpx>